Time;durP1;ratioP1;P1;durP2;ratioP2;P2;SDS_P1;SDS_P2;PMS_P1;PMS_P2;Temp;Humidity;BMP_temperature;BMP_pressure;BME280_temperature;BME280_humidity;BME280_pressure;Samples;Min_cycle;Max_cycle;Signal;HPM_P1;HPM_P2
2021/12/14 00:02:27;;;;;;;22.75;14.23;;;8.70;99.90;;;;;;5109771;28;20024;-73
2021/12/14 00:04:54;;;;;;;20.80;13.50;;;8.80;99.90;;;;;;5111250;28;20105;-75
2021/12/14 00:07:23;;;;;;;20.02;12.88;;;8.80;99.90;;;;;;5111422;28;20044;-74
2021/12/14 00:09:49;;;;;;;16.77;12.23;;;8.80;99.90;;;;;;5095310;28;20043;-73
2021/12/14 00:15:03;;;;;;;17.65;13.05;;;8.80;99.90;;;;;;5102339;28;20548;-75
2021/12/14 00:17:44;;;;;;;19.92;13.57;;;8.80;99.90;;;;;;5092973;28;20468;-75
2021/12/14 00:20:33;;;;;;;18.65;12.63;;;8.80;99.90;;;;;;5095322;28;20475;-73
2021/12/14 00:25:47;;;;;;;17.98;12.57;;;8.80;99.90;;;;;;5089090;28;20121;-75
2021/12/14 00:28:13;;;;;;;20.65;13.18;;;8.70;99.90;;;;;;5111324;28;20605;-74
2021/12/14 00:30:40;;;;;;;19.73;12.65;;;8.70;99.90;;;;;;5093349;28;20051;-74
2021/12/14 00:33:11;;;;;;;18.58;12.35;;;8.70;99.90;;;;;;5095527;28;20043;-73
2021/12/14 00:35:38;;;;;;;17.27;12.75;;;8.70;99.90;;;;;;5106070;28;20058;-74
2021/12/14 00:38:04;;;;;;;22.05;13.63;;;8.70;99.90;;;;;;5091544;28;20032;-73
2021/12/14 00:40:36;;;;;;;21.05;13.65;;;8.70;99.90;;;;;;5102055;28;20479;-74
2021/12/14 00:43:02;;;;;;;16.95;12.63;;;8.70;99.90;;;;;;5102217;28;20195;-74
2021/12/14 00:45:32;;;;;;;17.42;12.85;;;8.60;99.90;;;;;;5103669;28;20092;-73
2021/12/14 00:47:58;;;;;;;21.35;13.45;;;8.70;99.90;;;;;;5107846;28;20039;-73
2021/12/14 00:50:26;;;;;;;19.58;12.68;;;8.70;99.90;;;;;;5106703;28;20063;-73
2021/12/14 00:52:52;;;;;;;18.45;11.32;;;8.60;99.90;;;;;;5104935;28;20039;-75
2021/12/14 00:55:30;;;;;;;17.85;12.07;;;8.60;99.90;;;;;;5092840;28;20050;-74
2021/12/14 00:57:56;;;;;;;15.85;10.95;;;8.60;99.90;;;;;;5100106;28;20044;-75
2021/12/14 01:00:28;;;;;;;17.48;11.50;;;8.70;99.90;;;;;;5105453;28;20396;-74
2021/12/14 01:02:54;;;;;;;14.52;10.73;;;8.60;99.90;;;;;;5101833;28;20071;-75
2021/12/14 01:05:28;;;;;;;18.08;11.50;;;8.60;99.90;;;;;;5107854;28;20450;-74
2021/12/14 01:07:54;;;;;;;16.65;11.13;;;8.60;99.90;;;;;;5100279;28;20122;-73
2021/12/14 01:10:37;;;;;;;16.08;11.25;;;8.60;99.90;;;;;;5102330;28;20130;-73
2021/12/14 01:13:07;;;;;;;17.90;10.68;;;8.60;99.90;;;;;;5104028;28;20127;-72
2021/12/14 01:16:02;;;;;;;17.73;11.15;;;8.60;99.90;;;;;;5100759;28;20122;-73
2021/12/14 01:21:44;;;;;;;20.02;11.88;;;8.60;99.90;;;;;;5106162;28;20052;-74
2021/12/14 01:25:00;;;;;;;15.95;11.30;;;8.60;99.90;;;;;;5101662;28;20119;-73
2021/12/14 01:27:21;;;;;;;16.20;11.32;;;8.60;99.90;;;;;;5096813;28;20104;-72
2021/12/14 01:29:50;;;;;;;15.73;10.95;;;8.60;99.90;;;;;;5107113;28;20075;-72
2021/12/14 01:32:16;;;;;;;18.30;11.52;;;8.60;99.90;;;;;;5088113;28;20078;-75
2021/12/14 01:34:42;;;;;;;19.15;11.23;;;8.60;99.90;;;;;;5105788;28;20371;-73
2021/12/14 01:37:17;;;;;;;16.10;11.07;;;8.60;99.90;;;;;;5104636;28;20044;-73
2021/12/14 01:40:07;;;;;;;16.50;11.30;;;8.60;99.90;;;;;;5099782;28;20061;-75
2021/12/14 01:42:38;;;;;;;17.02;12.18;;;8.60;99.90;;;;;;5100008;28;20122;-73
2021/12/14 01:45:08;;;;;;;17.75;12.35;;;8.60;99.90;;;;;;5100004;28;20047;-74
2021/12/14 01:47:39;;;;;;;18.92;12.77;;;8.60;99.90;;;;;;5081067;28;20035;-75
2021/12/14 01:50:16;;;;;;;17.20;12.25;;;8.60;99.90;;;;;;5103734;28;20070;-75
2021/12/14 01:52:42;;;;;;;17.77;11.82;;;8.60;99.90;;;;;;5097607;28;20387;-72
2021/12/14 01:55:13;;;;;;;18.48;12.07;;;8.60;99.90;;;;;;5081812;28;20051;-72
2021/12/14 01:57:40;;;;;;;18.80;12.77;;;8.60;99.90;;;;;;5106066;28;20051;-75
2021/12/14 02:00:17;;;;;;;16.27;12.07;;;8.60;99.90;;;;;;5097151;28;20387;-72
2021/12/14 02:02:46;;;;;;;19.58;13.50;;;8.60;99.90;;;;;;5102012;28;20536;-73
2021/12/14 02:05:27;;;;;;;17.05;11.40;;;8.60;99.90;;;;;;5100629;28;20051;-75
2021/12/14 02:07:56;;;;;;;19.27;12.73;;;8.60;99.90;;;;;;5099725;28;20040;-73
2021/12/14 02:10:28;;;;;;;21.95;13.45;;;8.60;99.90;;;;;;5097213;28;20051;-75
2021/12/14 02:12:54;;;;;;;19.33;12.15;;;8.60;99.90;;;;;;5102227;28;20040;-73
2021/12/14 02:15:38;;;;;;;19.65;12.30;;;8.70;99.90;;;;;;5085624;28;20042;-75
2021/12/14 02:18:08;;;;;;;18.42;12.73;;;8.60;99.90;;;;;;5099600;28;20583;-74
2021/12/14 02:20:38;;;;;;;18.67;12.98;;;8.60;99.90;;;;;;5081554;28;20090;-75
2021/12/14 02:23:06;;;;;;;19.85;14.60;;;8.60;99.90;;;;;;5109440;28;20058;-73
2021/12/14 02:25:32;;;;;;;20.92;14.50;;;8.60;99.90;;;;;;5107812;28;20052;-73
2021/12/14 02:28:02;;;;;;;22.25;14.57;;;8.60;99.90;;;;;;5089216;28;20051;-74
2021/12/14 02:30:30;;;;;;;22.10;15.40;;;8.60;99.90;;;;;;5109186;28;20055;-73
2021/12/14 02:32:57;;;;;;;22.15;15.57;;;8.60;99.90;;;;;;5111198;28;20040;-73
2021/12/14 02:35:26;;;;;;;25.40;17.23;;;8.60;99.90;;;;;;5110528;28;20544;-73
2021/12/14 02:38:00;;;;;;;24.88;15.98;;;8.60;99.90;;;;;;5110298;28;20345;-73
2021/12/14 02:40:56;;;;;;;22.55;16.13;;;8.60;99.90;;;;;;5111553;28;20040;-73
2021/12/14 02:43:39;;;;;;;26.15;15.68;;;8.60;99.90;;;;;;5108756;28;20152;-72
2021/12/14 02:46:19;;;;;;;25.90;16.95;;;8.60;99.90;;;;;;5092577;28;20067;-74
2021/12/14 02:48:48;;;;;;;25.30;17.65;;;8.60;99.90;;;;;;5109195;28;20119;-73
2021/12/14 02:51:18;;;;;;;24.50;17.27;;;8.70;99.90;;;;;;5110395;28;20104;-72
2021/12/14 02:53:49;;;;;;;27.38;17.48;;;8.60;99.90;;;;;;5109080;28;20082;-73
2021/12/14 02:56:18;;;;;;;30.33;18.58;;;8.60;99.90;;;;;;5095693;28;20051;-72
2021/12/14 02:58:46;;;;;;;23.58;16.33;;;8.50;99.90;;;;;;5109180;28;20045;-74
2021/12/14 03:01:13;;;;;;;25.92;16.58;;;8.60;99.90;;;;;;5109203;28;20036;-73
2021/12/14 03:03:39;;;;;;;28.80;20.67;;;8.50;99.90;;;;;;5076784;28;20458;-74
2021/12/14 03:06:09;;;;;;;26.27;18.05;;;8.60;99.90;;;;;;5102874;28;20035;-74
2021/12/14 03:08:44;;;;;;;25.45;17.13;;;8.50;99.90;;;;;;5117825;27;20046;-74
2021/12/14 03:11:10;;;;;;;28.10;18.40;;;8.60;99.90;;;;;;5091450;28;20126;-74
2021/12/14 03:13:47;;;;;;;27.92;18.77;;;8.50;99.90;;;;;;5103507;28;20047;-74
2021/12/14 03:16:25;;;;;;;25.35;18.13;;;8.60;99.90;;;;;;5104074;28;20039;-74
2021/12/14 03:18:54;;;;;;;28.13;17.27;;;8.50;99.90;;;;;;5089042;28;20044;-72
2021/12/14 03:21:32;;;;;;;26.33;17.85;;;8.60;99.90;;;;;;5106427;28;20039;-73
2021/12/14 03:24:08;;;;;;;23.98;17.30;;;8.50;99.90;;;;;;5102590;28;20048;-73
2021/12/14 03:26:37;;;;;;;30.33;17.70;;;8.60;99.90;;;;;;5104111;28;20360;-74
2021/12/14 03:29:18;;;;;;;28.58;18.42;;;8.50;99.90;;;;;;5103498;28;20040;-74
2021/12/14 03:31:47;;;;;;;26.98;18.27;;;8.50;99.90;;;;;;5106084;28;20635;-72
2021/12/14 03:34:17;;;;;;;23.20;16.67;;;8.50;99.90;;;;;;5103305;28;20083;-73
2021/12/14 03:36:47;;;;;;;24.90;17.10;;;8.60;99.90;;;;;;5086760;28;20127;-73
2021/12/14 03:39:23;;;;;;;27.48;18.35;;;8.50;99.90;;;;;;5121493;27;20111;-71
2021/12/14 03:41:57;;;;;;;27.00;17.77;;;8.50;99.90;;;;;;5102837;28;20043;-74
2021/12/14 03:44:41;;;;;;;28.75;18.48;;;8.50;99.90;;;;;;5079444;28;20035;-73
2021/12/14 03:47:24;;;;;;;29.83;18.70;;;8.50;99.90;;;;;;5109255;28;20043;-73
2021/12/14 03:49:57;;;;;;;33.25;19.23;;;8.50;99.90;;;;;;5104352;28;21273;-74
2021/12/14 03:52:36;;;;;;;29.08;18.85;;;8.60;99.90;;;;;;5104028;28;20425;-74
2021/12/14 03:55:10;;;;;;;28.42;18.55;;;8.60;99.90;;;;;;5098253;27;20515;-75
2021/12/14 03:57:36;;;;;;;26.95;17.45;;;8.50;99.90;;;;;;5099843;28;20035;-74
2021/12/14 04:00:08;;;;;;;25.67;17.85;;;8.50;99.90;;;;;;5104267;27;20031;-73
2021/12/14 04:02:34;;;;;;;28.58;18.45;;;8.50;99.90;;;;;;5102473;28;20036;-74
2021/12/14 04:05:09;;;;;;;27.65;18.70;;;8.50;99.90;;;;;;5083164;28;20961;-72
2021/12/14 04:07:37;;;;;;;29.90;19.00;;;8.50;99.90;;;;;;5100016;28;20130;-74
2021/12/14 04:10:16;;;;;;;30.92;19.30;;;8.50;99.90;;;;;;5102473;28;20039;-74
2021/12/14 04:12:42;;;;;;;29.63;19.02;;;8.50;99.90;;;;;;5103908;27;20058;-73
2021/12/14 04:15:10;;;;;;;29.38;19.38;;;8.60;99.90;;;;;;5103747;28;20043;-74
2021/12/14 04:17:36;;;;;;;30.65;18.83;;;8.60;99.90;;;;;;5099659;28;20054;-72
2021/12/14 04:20:13;;;;;;;31.25;20.35;;;8.50;99.90;;;;;;5105314;27;20078;-73
2021/12/14 04:22:40;;;;;;;28.08;19.25;;;8.60;99.90;;;;;;5105291;28;20105;-73
2021/12/14 04:25:08;;;;;;;29.45;19.80;;;8.60;99.90;;;;;;5071487;28;20039;-72
2021/12/14 04:27:35;;;;;;;30.58;19.15;;;8.60;99.90;;;;;;5094420;28;20044;-72
2021/12/14 04:30:06;;;;;;;33.83;19.88;;;8.60;99.90;;;;;;5106560;28;20115;-73
2021/12/14 04:32:32;;;;;;;30.85;18.88;;;8.70;99.90;;;;;;5096436;28;20078;-73
2021/12/14 04:34:57;;;;;;;30.75;19.85;;;8.60;99.90;;;;;;5097999;28;20970;-73
2021/12/14 04:37:24;;;;;;;31.50;19.30;;;8.60;99.90;;;;;;5102812;28;20039;-72
2021/12/14 04:39:58;;;;;;;27.08;18.08;;;8.60;99.90;;;;;;5105864;28;20058;-72
2021/12/14 04:53:48;;;;;;;27.50;19.20;;;8.60;99.90;;;;;;5109025;28;20096;-73
2021/12/14 04:56:25;;;;;;;28.83;19.20;;;8.70;99.90;;;;;;5104628;28;20051;-72
2021/12/14 04:59:07;;;;;;;33.45;20.45;;;8.60;99.90;;;;;;5102994;28;20069;-74
2021/12/14 05:01:37;;;;;;;32.20;19.20;;;8.70;99.90;;;;;;5105492;28;20114;-74
2021/12/14 05:04:06;;;;;;;34.17;20.48;;;8.70;99.90;;;;;;5108096;28;20051;-74
2021/12/14 05:06:46;;;;;;;27.75;18.38;;;8.50;99.90;;;;;;5089552;28;20044;-73
2021/12/14 05:09:22;;;;;;;28.27;18.52;;;8.60;99.90;;;;;;5102103;27;20032;-74
2021/12/14 05:11:54;;;;;;;29.52;19.58;;;8.60;99.90;;;;;;5106357;27;20051;-72
2021/12/14 05:14:23;;;;;;;31.02;20.63;;;8.50;99.90;;;;;;5103608;28;20036;-74
2021/12/14 05:17:01;;;;;;;32.42;21.27;;;8.60;99.90;;;;;;5098576;28;20387;-73
2021/12/14 05:19:29;;;;;;;37.22;22.00;;;8.70;99.90;;;;;;5095603;28;20408;-73
2021/12/14 05:22:10;;;;;;;33.40;21.95;;;8.50;99.90;;;;;;5101026;28;20148;-72
2021/12/14 05:24:42;;;;;;;33.42;20.65;;;8.70;99.90;;;;;;5102142;27;20440;-71
2021/12/14 05:27:10;;;;;;;33.78;20.15;;;8.50;99.90;;;;;;5101414;28;20486;-72
2021/12/14 05:29:40;;;;;;;33.70;21.33;;;8.60;99.90;;;;;;5099651;28;20047;-73
2021/12/14 05:32:07;;;;;;;37.80;23.38;;;8.70;99.90;;;;;;5097548;28;20083;-72
2021/12/14 05:34:34;;;;;;;34.70;21.90;;;8.60;99.90;;;;;;5106561;28;20050;-73
2021/12/14 05:37:00;;;;;;;33.22;20.45;;;8.70;99.90;;;;;;5084399;28;20126;-73
2021/12/14 05:44:57;;;;;;;29.85;20.00;;;8.70;99.90;;;;;;5100471;28;20091;-73
2021/12/14 05:47:22;;;;;;;33.97;21.73;;;8.70;99.90;;;;;;5098628;28;20462;-72
2021/12/14 05:49:48;;;;;;;34.05;21.35;;;8.60;99.90;;;;;;5100650;28;20126;-72
2021/12/14 05:52:27;;;;;;;36.50;21.92;;;8.80;99.90;;;;;;5101683;28;20068;-72
2021/12/14 05:54:55;;;;;;;33.00;20.77;;;8.80;99.90;;;;;;5083061;28;20131;-72
2021/12/14 05:57:23;;;;;;;31.80;20.58;;;8.60;99.90;;;;;;5104783;28;20127;-72
2021/12/14 05:59:50;;;;;;;34.10;20.90;;;8.60;99.90;;;;;;5100970;28;20049;-72
2021/12/14 06:02:19;;;;;;;36.28;22.25;;;8.80;99.90;;;;;;5099320;28;20055;-72
2021/12/14 06:04:48;;;;;;;35.92;20.80;;;8.80;99.90;;;;;;5105889;28;20142;-72
2021/12/14 06:07:15;;;;;;;37.83;22.70;;;8.60;99.90;;;;;;5106909;28;20163;-72
2021/12/14 06:09:49;;;;;;;40.03;22.75;;;8.70;99.90;;;;;;5104987;28;20039;-72
2021/12/14 06:12:19;;;;;;;32.08;21.50;;;8.60;99.90;;;;;;5105006;28;20073;-72
2021/12/14 06:14:58;;;;;;;35.78;22.67;;;8.80;99.90;;;;;;5103399;28;20586;-72
2021/12/14 06:17:29;;;;;;;35.53;22.15;;;8.80;99.90;;;;;;5106545;28;20047;-72
2021/12/14 06:20:05;;;;;;;33.08;21.45;;;8.90;99.90;;;;;;5105167;28;20050;-72
2021/12/14 06:22:31;;;;;;;37.47;21.88;;;8.60;99.90;;;;;;5098575;28;20039;-72
2021/12/14 06:25:01;;;;;;;36.97;22.85;;;8.60;99.90;;;;;;5099760;28;20061;-72
2021/12/14 06:27:30;;;;;;;36.83;21.27;;;8.60;99.90;;;;;;5102751;28;20153;-72
2021/12/14 06:30:00;;;;;;;34.75;22.67;;;8.60;99.90;;;;;;5099814;28;20081;-72
2021/12/14 06:32:33;;;;;;;41.05;24.33;;;8.70;99.90;;;;;;5111753;27;20035;-72
2021/12/14 06:35:16;;;;;;;38.05;22.77;;;8.70;99.90;;;;;;5100511;28;20088;-73
2021/12/14 06:40:40;;;;;;;39.60;24.88;;;8.90;99.90;;;;;;5100641;28;20047;-72
2021/12/14 06:43:11;;;;;;;35.03;22.00;;;8.70;99.90;;;;;;5106729;28;20055;-73
2021/12/14 06:45:40;;;;;;;34.85;22.38;;;8.80;99.90;;;;;;5108804;28;20044;-72
2021/12/14 06:48:20;;;;;;;39.58;24.13;;;8.70;99.90;;;;;;5102562;28;20044;-72
2021/12/14 06:50:53;;;;;;;35.00;21.60;;;8.90;99.90;;;;;;5108093;28;20118;-72
2021/12/14 06:53:21;;;;;;;41.13;23.70;;;8.70;99.90;;;;;;5108816;28;20083;-73
2021/12/14 06:55:51;;;;;;;39.75;23.67;;;8.70;99.90;;;;;;5107635;28;20043;-73
2021/12/14 06:58:20;;;;;;;46.67;26.95;;;8.90;99.90;;;;;;5107304;28;20040;-73
2021/12/14 07:00:49;;;;;;;43.05;25.55;;;9.00;99.90;;;;;;5108576;28;20046;-73
2021/12/14 07:03:15;;;;;;;38.47;23.90;;;8.90;99.90;;;;;;5109170;28;20049;-73
2021/12/14 07:05:49;;;;;;;39.72;24.45;;;8.70;99.90;;;;;;5106448;28;20051;-73
2021/12/14 07:08:26;;;;;;;42.15;26.70;;;8.90;99.90;;;;;;5111352;28;20058;-72
2021/12/14 07:10:54;;;;;;;42.05;24.65;;;8.70;99.90;;;;;;5112638;28;20112;-72
2021/12/14 07:13:35;;;;;;;39.13;24.42;;;8.70;99.90;;;;;;5112459;28;20051;-72
2021/12/14 07:16:11;;;;;;;39.17;23.15;;;8.60;99.90;;;;;;5111425;28;20047;-72
2021/12/14 07:18:37;;;;;;;40.22;24.15;;;8.70;99.90;;;;;;5114062;28;20048;-72
2021/12/14 07:21:02;;;;;;;40.22;23.73;;;8.70;99.90;;;;;;5095438;28;20054;-75
2021/12/14 07:23:34;;;;;;;36.92;24.77;;;8.80;99.90;;;;;;5112976;28;20066;-73
2021/12/14 07:26:17;;;;;;;40.85;25.27;;;8.90;99.90;;;;;;5111464;28;20062;-73
2021/12/14 07:28:45;;;;;;;44.20;26.83;;;8.80;99.90;;;;;;5093945;28;20477;-72
2021/12/14 07:31:23;;;;;;;40.63;24.45;;;9.00;99.90;;;;;;5111136;28;20083;-73
2021/12/14 07:33:56;;;;;;;41.88;24.08;;;9.00;99.90;;;;;;5111487;28;20379;-75
2021/12/14 07:36:28;;;;;;;42.67;25.73;;;8.90;99.90;;;;;;5117658;27;20035;-72
2021/12/14 07:39:12;;;;;;;40.97;24.25;;;8.70;99.90;;;;;;5108875;28;20118;-73
2021/12/14 07:41:50;;;;;;;42.78;26.23;;;9.00;99.90;;;;;;5110574;28;20446;-73
2021/12/14 07:44:20;;;;;;;42.63;25.73;;;9.10;99.90;;;;;;5108901;28;20043;-72
2021/12/14 07:46:52;;;;;;;48.50;26.27;;;8.70;99.90;;;;;;5094186;28;20098;-73
2021/12/14 07:49:17;;;;;;;44.40;25.23;;;9.20;99.90;;;;;;5093908;28;20067;-73
2021/12/14 07:51:46;;;;;;;43.65;25.92;;;9.00;99.90;;;;;;5111108;28;20071;-73
2021/12/14 07:54:17;;;;;;;46.42;26.08;;;9.00;99.90;;;;;;5110411;28;20163;-73
2021/12/14 07:57:11;;;;;;;49.97;28.08;;;8.70;99.90;;;;;;5111446;28;20529;-73
2021/12/14 07:59:41;;;;;;;45.63;27.42;;;8.90;99.90;;;;;;5110064;28;20047;-72
2021/12/14 08:02:20;;;;;;;45.10;25.80;;;8.50;99.90;;;;;;5089125;28;20043;-73
2021/12/14 08:05:11;;;;;;;49.70;27.15;;;8.70;99.90;;;;;;5104944;28;20391;-73
2021/12/14 08:07:41;;;;;;;50.30;27.23;;;9.10;99.90;;;;;;5110133;27;20353;-72
2021/12/14 08:10:14;;;;;;;49.03;27.90;;;9.30;99.90;;;;;;5118114;27;20128;-72
2021/12/14 08:12:50;;;;;;;54.58;29.92;;;8.80;99.90;;;;;;5102094;28;20048;-72
2021/12/14 08:15:38;;;;;;;47.00;27.52;;;9.50;99.90;;;;;;5096845;28;20044;-73
2021/12/14 08:18:09;;;;;;;53.13;29.42;;;9.30;99.90;;;;;;5106854;28;20051;-72
2021/12/14 08:20:46;;;;;;;55.38;29.30;;;8.70;99.90;;;;;;5105269;28;20075;-72
2021/12/14 08:23:39;;;;;;;54.53;29.10;;;9.00;99.90;;;;;;5105736;28;20044;-75
2021/12/14 08:26:27;;;;;;;56.53;30.35;;;9.60;99.90;;;;;;5103697;28;20083;-72
2021/12/14 08:29:01;;;;;;;60.33;31.10;;;8.70;99.90;;;;;;5101173;28;20048;-72
2021/12/14 08:31:39;;;;;;;57.85;31.60;;;9.00;99.90;;;;;;5104310;28;20130;-71
2021/12/14 08:34:09;;;;;;;54.25;29.80;;;8.80;99.90;;;;;;5103137;28;20741;-72
2021/12/14 08:36:47;;;;;;;54.15;30.02;;;8.80;99.90;;;;;;5103896;28;20047;-72
2021/12/14 08:39:13;;;;;;;55.92;30.92;;;8.70;99.90;;;;;;5103536;28;20058;-72
2021/12/14 08:41:47;;;;;;;52.88;28.38;;;9.70;99.90;;;;;;5086707;28;20043;-72
2021/12/14 08:44:20;;;;;;;54.88;28.80;;;9.60;99.90;;;;;;5104274;28;20047;-72
2021/12/14 08:46:49;;;;;;;63.83;31.85;;;9.30;99.90;;;;;;5103524;28;20085;-71
2021/12/14 08:49:16;;;;;;;50.88;27.92;;;9.40;99.90;;;;;;5104389;28;20098;-72
2021/12/14 08:51:46;;;;;;;56.08;29.75;;;9.50;99.90;;;;;;5103578;28;20050;-71
2021/12/14 08:54:25;;;;;;;54.95;29.73;;;9.10;99.90;;;;;;5100824;28;20058;-72
2021/12/14 08:57:14;;;;;;;50.55;28.50;;;9.00;99.90;;;;;;5102114;28;20346;-72
2021/12/14 08:59:44;;;;;;;53.97;29.02;;;9.80;99.90;;;;;;5102101;28;20072;-71
2021/12/14 09:02:13;;;;;;;63.72;30.88;;;9.60;99.90;;;;;;5101569;28;20153;-71
2021/12/14 09:04:45;;;;;;;60.70;31.05;;;9.80;99.90;;;;;;5085453;28;20055;-71
2021/12/14 09:07:16;;;;;;;53.92;28.65;;;8.80;99.90;;;;;;5102335;28;20056;-72
2021/12/14 09:09:46;;;;;;;62.63;29.90;;;8.90;99.90;;;;;;5085328;28;20141;-71
2021/12/14 09:12:30;;;;;;;54.83;28.25;;;8.80;99.90;;;;;;5084781;28;20082;-71
2021/12/14 09:15:00;;;;;;;59.75;29.00;;;9.30;99.90;;;;;;5101395;28;20507;-71
2021/12/14 09:17:26;;;;;;;58.47;30.98;;;8.90;99.90;;;;;;5103855;27;20039;-71
2021/12/14 09:20:25;;;;;;;53.03;28.55;;;9.40;99.90;;;;;;5084714;28;20126;-71
2021/12/14 09:23:02;;;;;;;53.33;28.80;;;9.30;99.90;;;;;;5097248;28;20502;-71
2021/12/14 09:25:29;;;;;;;57.78;29.90;;;9.90;99.90;;;;;;5102184;28;20047;-72
2021/12/14 09:27:57;;;;;;;61.58;31.15;;;9.30;99.90;;;;;;5084566;28;20089;-73
2021/12/14 09:30:28;;;;;;;60.40;31.50;;;9.10;99.90;;;;;;5101216;28;20122;-72
2021/12/14 09:32:55;;;;;;;55.80;30.42;;;9.20;99.90;;;;;;5101496;28;20044;-72
2021/12/14 09:35:24;;;;;;;57.00;30.80;;;9.80;99.90;;;;;;5085052;28;20046;-73
2021/12/14 09:37:52;;;;;;;63.17;32.17;;;9.80;99.90;;;;;;5101468;28;20042;-72
2021/12/14 09:40:26;;;;;;;59.65;31.10;;;9.10;99.90;;;;;;5102559;28;20436;-72
2021/12/14 09:42:53;;;;;;;58.63;31.33;;;9.20;99.90;;;;;;5101689;28;20043;-71
2021/12/14 09:45:26;;;;;;;50.47;28.23;;;9.90;99.90;;;;;;5101691;28;20047;-72
2021/12/14 09:47:53;;;;;;;56.72;30.55;;;9.10;99.90;;;;;;5101221;28;20044;-72
2021/12/14 09:50:25;;;;;;;61.78;30.20;;;9.60;99.90;;;;;;5101545;28;20035;-71
2021/12/14 09:52:52;;;;;;;58.83;29.83;;;9.90;99.90;;;;;;5100951;28;20402;-71
2021/12/14 09:55:23;;;;;;;55.15;30.38;;;9.20;99.90;;;;;;5084654;28;20383;-72
2021/12/14 09:57:54;;;;;;;60.28;29.67;;;10.00;99.90;;;;;;5101962;28;20043;-71
2021/12/14 10:00:26;;;;;;;54.78;29.73;;;9.90;99.90;;;;;;5101839;28;20480;-72
2021/12/14 10:02:54;;;;;;;57.05;29.63;;;9.40;99.90;;;;;;5101258;28;20047;-72
2021/12/14 10:05:42;;;;;;;52.28;28.15;;;9.90;99.90;;;;;;5101548;28;20039;-71
2021/12/14 10:08:17;;;;;;;58.03;30.13;;;9.90;99.90;;;;;;5084071;28;20028;-72
2021/12/14 10:10:47;;;;;;;47.83;27.58;;;9.80;99.90;;;;;;5100759;28;20056;-73
2021/12/14 10:13:14;;;;;;;51.55;28.55;;;9.20;99.90;;;;;;5101201;28;20087;-73
2021/12/14 10:15:48;;;;;;;47.55;28.23;;;9.50;99.90;;;;;;5101237;28;20066;-73
2021/12/14 10:18:27;;;;;;;46.13;25.38;;;9.80;99.90;;;;;;5101108;28;20047;-73
2021/12/14 10:21:01;;;;;;;55.90;29.55;;;9.90;99.90;;;;;;5102912;28;20032;-73
2021/12/14 10:23:28;;;;;;;54.03;29.27;;;9.70;99.90;;;;;;5102503;28;20051;-74
2021/12/14 10:25:55;;;;;;;50.60;28.92;;;9.80;99.90;;;;;;5101767;28;20131;-73
2021/12/14 10:28:24;;;;;;;51.42;27.42;;;9.30;99.90;;;;;;5102893;28;20380;-72
2021/12/14 10:30:56;;;;;;;41.47;23.92;;;9.20;99.90;;;;;;5102046;28;20050;-72
2021/12/14 10:33:24;;;;;;;47.85;27.40;;;9.40;99.90;;;;;;5102529;28;20076;-71
2021/12/14 10:35:55;;;;;;;44.65;25.90;;;10.10;99.90;;;;;;5101997;28;20483;-73
2021/12/14 10:38:30;;;;;;;46.28;25.25;;;10.10;99.90;;;;;;5101368;28;20080;-72
2021/12/14 10:43:54;;;;;;;50.15;26.80;;;9.80;99.90;;;;;;5105007;28;20135;-73
2021/12/14 10:46:37;;;;;;;51.90;27.40;;;10.10;99.90;;;;;;5089309;28;20083;-73
2021/12/14 10:49:04;;;;;;;45.38;24.95;;;9.90;99.90;;;;;;5105827;27;20097;-72
2021/12/14 10:51:36;;;;;;;46.90;25.00;;;10.10;99.90;;;;;;5105937;28;20062;-73
2021/12/14 10:54:04;;;;;;;46.50;26.80;;;9.60;99.90;;;;;;5105374;28;20298;-73
2021/12/14 10:56:57;;;;;;;49.88;27.38;;;9.40;99.90;;;;;;5105362;28;20750;-72
2021/12/14 10:59:28;;;;;;;45.75;24.30;;;9.60;99.90;;;;;;5098311;28;20059;-73
2021/12/14 11:01:54;;;;;;;46.42;26.05;;;9.50;99.90;;;;;;5087673;28;20424;-72
2021/12/14 11:04:42;;;;;;;51.03;26.30;;;9.90;99.90;;;;;;5087927;28;20524;-72
2021/12/14 11:07:17;;;;;;;42.50;22.58;;;9.90;99.90;;;;;;5104611;28;20063;-72
2021/12/14 11:09:47;;;;;;;45.60;25.27;;;9.90;99.90;;;;;;5104565;28;20103;-74
2021/12/14 11:12:29;;;;;;;41.75;23.58;;;9.60;99.90;;;;;;5105371;28;20466;-71
2021/12/14 11:15:11;;;;;;;43.90;25.15;;;9.60;99.90;;;;;;5104160;28;20079;-73
2021/12/14 11:20:55;;;;;;;37.60;21.17;;;9.80;99.90;;;;;;5104468;28;20044;-72
2021/12/14 11:23:38;;;;;;;38.90;21.17;;;10.00;99.90;;;;;;5085147;28;20052;-72
2021/12/14 11:26:14;;;;;;;39.60;21.60;;;10.30;99.90;;;;;;5084412;28;20075;-73
2021/12/14 11:28:55;;;;;;;37.42;21.42;;;10.30;99.90;;;;;;5084440;28;20047;-73
2021/12/14 11:31:33;;;;;;;41.78;22.83;;;9.70;99.90;;;;;;5084745;28;20101;-73
2021/12/14 11:34:08;;;;;;;35.67;21.65;;;9.70;99.90;;;;;;5084141;28;20040;-73
2021/12/14 11:36:42;;;;;;;37.38;21.52;;;9.80;99.90;;;;;;5084657;28;20399;-72
2021/12/14 11:39:12;;;;;;;37.85;20.98;;;9.90;99.90;;;;;;5083906;28;20040;-73
2021/12/14 11:41:45;;;;;;;39.13;21.15;;;9.70;99.90;;;;;;5084551;28;20662;-72
2021/12/14 11:44:44;;;;;;;40.60;23.08;;;9.60;99.90;;;;;;5084281;28;20551;-75
2021/12/14 11:50:01;;;;;;;;;;;9.70;99.90;;;;;;5085246;28;20048;-72
2021/12/14 11:53:00;;;;;;;33.05;19.88;;;10.20;99.90;;;;;;5084488;28;19920;-72
2021/12/14 11:55:41;;;;;;;40.20;21.85;;;10.20;99.90;;;;;;5083923;28;20056;-72
2021/12/14 11:58:24;;;;;;;36.28;20.55;;;10.20;99.90;;;;;;5083962;28;20055;-72
2021/12/14 12:01:00;;;;;;;34.38;20.48;;;9.70;99.90;;;;;;5084749;28;20067;-71
2021/12/14 12:03:33;;;;;;;43.78;22.95;;;9.60;99.90;;;;;;5084599;28;20051;-74
2021/12/14 12:06:44;;;;;;;40.08;21.90;;;9.80;99.90;;;;;;5084162;28;20074;-73
2021/12/14 12:09:36;;;;;;;37.13;22.05;;;9.50;99.90;;;;;;5084104;28;20054;-74
2021/12/14 12:12:05;;;;;;;45.88;23.50;;;10.30;99.90;;;;;;5078027;28;20073;-74
2021/12/14 12:14:59;;;;;;;38.67;22.23;;;9.50;99.90;;;;;;5083689;28;20082;-75
2021/12/14 12:17:27;;;;;;;36.35;21.27;;;10.50;99.90;;;;;;5083509;28;20570;-74
2021/12/14 12:20:04;;;;;;;36.97;20.75;;;10.40;99.90;;;;;;5084315;28;20048;-76
2021/12/14 12:22:38;;;;;;;37.80;21.25;;;10.00;99.90;;;;;;5100469;28;20086;-73
2021/12/14 12:25:07;;;;;;;35.92;19.55;;;10.20;99.90;;;;;;5087367;28;20036;-74
2021/12/14 12:27:55;;;;;;;39.85;21.05;;;10.40;99.90;;;;;;5104647;28;20048;-75
2021/12/14 12:30:43;;;;;;;34.33;19.08;;;10.10;99.90;;;;;;5104382;28;20517;-76
2021/12/14 12:33:15;;;;;;;36.65;19.10;;;10.70;99.90;;;;;;5103522;28;20050;-74
2021/12/14 12:35:53;;;;;;;36.53;19.45;;;9.70;99.90;;;;;;5104251;28;20122;-74
2021/12/14 12:38:37;;;;;;;29.27;16.70;;;10.70;99.90;;;;;;5086839;28;20093;-74
2021/12/14 12:41:40;;;;;;;30.83;16.73;;;9.60;99.90;;;;;;5086471;28;20150;-76
2021/12/14 12:44:44;;;;;;;31.52;18.02;;;10.40;99.90;;;;;;5104279;28;20140;-73
2021/12/14 12:47:17;;;;;;;29.35;16.27;;;9.60;99.90;;;;;;5092071;28;20051;-74
2021/12/14 12:49:48;;;;;;;30.77;15.77;;;9.80;99.90;;;;;;5106297;28;20043;-73
2021/12/14 12:52:22;;;;;;;30.23;16.50;;;9.60;99.90;;;;;;5106788;28;20150;-75
2021/12/14 12:54:50;;;;;;;27.23;15.70;;;9.90;99.90;;;;;;5104989;28;20174;-75
2021/12/14 12:57:36;;;;;;;32.80;16.77;;;9.70;99.90;;;;;;5103811;28;20127;-74
2021/12/14 13:00:28;;;;;;;29.30;15.90;;;10.60;99.90;;;;;;5102880;28;20043;-76
2021/12/14 13:03:21;;;;;;;31.13;17.55;;;9.70;99.90;;;;;;5103309;28;20039;-75
2021/12/14 13:05:58;;;;;;;31.90;16.05;;;10.30;99.90;;;;;;5103175;28;20094;-77
2021/12/14 13:08:39;;;;;;;30.55;15.75;;;10.10;99.90;;;;;;5103189;28;20058;-75
2021/12/14 13:11:16;;;;;;;33.72;16.90;;;10.70;99.90;;;;;;5103629;28;20171;-74
2021/12/14 13:13:48;;;;;;;25.73;14.10;;;9.70;99.90;;;;;;5103357;28;20048;-77
2021/12/14 13:16:20;;;;;;;33.17;16.92;;;10.10;99.90;;;;;;5086470;28;20207;-75
2021/12/14 13:18:54;;;;;;;28.85;15.35;;;11.00;99.90;;;;;;5096111;28;20048;-75
2021/12/14 13:21:52;;;;;;;29.75;14.93;;;9.90;99.90;;;;;;5072048;28;20050;-75
2021/12/14 13:24:31;;;;;;;28.25;15.13;;;9.70;99.90;;;;;;5103213;28;20803;-73
2021/12/14 13:27:07;;;;;;;30.02;17.13;;;10.90;99.90;;;;;;5103419;28;20517;-74
2021/12/14 13:29:46;;;;;;;30.80;15.82;;;10.70;99.90;;;;;;5103505;28;20515;-77
2021/12/14 13:32:23;;;;;;;30.60;17.30;;;10.50;99.90;;;;;;5102974;28;20511;-75
2021/12/14 13:35:09;;;;;;;32.22;17.25;;;10.60;99.90;;;;;;5103001;28;20716;-73
2021/12/14 13:38:04;;;;;;;28.27;15.40;;;9.60;99.90;;;;;;5102887;28;20130;-77
2021/12/14 13:40:34;;;;;;;29.52;14.70;;;10.90;99.90;;;;;;5100048;28;20069;-73
2021/12/14 13:43:11;;;;;;;27.45;14.85;;;10.00;99.90;;;;;;5103330;28;20399;-77
2021/12/14 13:45:46;;;;;;;27.90;14.45;;;10.10;99.90;;;;;;5102769;28;20677;-75
2021/12/14 13:48:15;;;;;;;28.45;14.75;;;10.80;99.90;;;;;;5085376;28;20043;-74